createdAt,value
2018-07-26T00:01:54.186Z,66.12
2018-07-26T00:04:22.676Z,66.24
2018-07-26T00:06:51.421Z,65.94
2018-07-26T00:09:20.374Z,66.44
2018-07-26T00:11:49.027Z,66.77
2018-07-26T00:14:17.872Z,67.17
2018-07-26T00:16:46.920Z,67.16
2018-07-26T00:19:16.288Z,67.37
2018-07-26T00:21:44.955Z,67.20
2018-07-26T00:24:13.588Z,67.21
2018-07-26T00:26:42.313Z,67.28
2018-07-26T00:29:11.230Z,67.04
2018-07-26T00:31:39.658Z,67.18
2018-07-26T00:34:08.377Z,67.75
2018-07-26T00:36:37.138Z,67.81
2018-07-26T00:39:09.000Z,67.51
2018-07-26T00:41:37.936Z,67.94
2018-07-26T00:44:07.181Z,68.13
2018-07-26T00:46:35.671Z,68.24
2018-07-26T00:49:04.445Z,68.23
2018-07-26T00:51:33.598Z,68.24
2018-07-26T00:54:02.927Z,67.88
2018-07-26T00:56:31.377Z,68.00
2018-07-26T00:59:00.097Z,68.42
2018-07-26T01:01:28.796Z,67.80
2018-07-26T01:03:57.476Z,68.51
2018-07-26T01:06:25.933Z,68.31
2018-07-26T01:08:54.585Z,68.44
2018-07-26T01:11:23.237Z,68.86
2018-07-26T01:13:51.908Z,69.02
2018-07-26T01:16:20.775Z,68.83
2018-07-26T01:18:49.237Z,68.53
2018-07-26T01:21:18.285Z,68.56
2018-07-26T01:23:46.735Z,69.04
2018-07-26T01:26:15.196Z,69.31
2018-07-26T01:28:44.492Z,69.06
2018-07-26T01:31:13.313Z,68.48
2018-07-26T01:33:42.192Z,68.37
2018-07-26T01:36:11.001Z,68.43
2018-07-26T01:38:39.465Z,68.89
2018-07-26T01:41:08.047Z,68.56
2018-07-26T01:43:51.150Z,68.87
2018-07-26T01:46:21.170Z,68.99
2018-07-26T01:48:50.045Z,69.03
2018-07-26T01:51:18.985Z,69.09
2018-07-26T01:53:47.580Z,68.85
2018-07-26T01:56:16.455Z,68.68
2018-07-26T01:58:45.325Z,69.25
2018-07-26T02:01:14.470Z,69.05
2018-07-26T02:03:42.932Z,68.70
2018-07-26T02:06:11.784Z,69.13
2018-07-26T02:08:40.502Z,68.93
2018-07-26T02:11:08.958Z,68.66
2018-07-26T02:13:38.065Z,68.97
2018-07-26T02:16:07.045Z,68.26
2018-07-26T02:18:36.161Z,68.21
2018-07-26T02:21:05.108Z,68.24
2018-07-26T02:23:33.617Z,68.27
2018-07-26T02:26:02.538Z,67.93
2018-07-26T02:28:31.536Z,68.06
2018-07-26T02:31:00.039Z,68.10
2018-07-26T02:33:28.917Z,67.95
2018-07-26T02:35:58.355Z,67.87
2018-07-26T02:38:26.914Z,68.19
2018-07-26T02:40:55.870Z,67.92
2018-07-26T02:43:24.726Z,68.29
2018-07-26T02:45:53.229Z,67.78
2018-07-26T02:48:22.038Z,67.77
2018-07-26T02:50:51.109Z,67.59
2018-07-26T02:53:19.996Z,67.57
2018-07-26T02:55:48.465Z,67.50
2018-07-26T02:58:17.157Z,68.12
2018-07-26T03:00:45.648Z,68.18
2018-07-26T03:03:14.212Z,67.88
2018-07-26T03:05:43.308Z,67.56
2018-07-26T03:08:12.022Z,68.02
2018-07-26T03:10:40.698Z,67.43
2018-07-26T03:13:09.572Z,67.88
2018-07-26T03:15:38.070Z,67.13
2018-07-26T03:18:06.866Z,67.84
2018-07-26T03:20:35.601Z,67.23
2018-07-26T03:23:04.056Z,67.36
2018-07-26T03:25:32.657Z,67.10
2018-07-26T03:28:01.682Z,67.09
2018-07-26T03:30:30.193Z,67.45
2018-07-26T03:32:58.649Z,67.02
2018-07-26T03:35:27.533Z,67.55
2018-07-26T03:37:56.395Z,67.38
2018-07-26T03:40:24.833Z,67.52
2018-07-26T03:42:54.128Z,67.13
2018-07-26T03:45:22.687Z,67.09
2018-07-26T03:47:51.102Z,67.07
2018-07-26T03:50:20.089Z,66.88
2018-07-26T03:52:49.022Z,66.75
2018-07-26T03:55:17.429Z,66.30
2018-07-26T03:57:46.558Z,66.18
2018-07-26T04:00:15.313Z,66.76
2018-07-26T04:02:44.048Z,66.08
2018-07-26T04:05:12.870Z,66.61
2018-07-26T04:07:41.313Z,66.12
2018-07-26T04:10:09.836Z,66.02
2018-07-26T04:12:38.921Z,66.39
2018-07-26T04:15:08.079Z,66.05
2018-07-26T04:17:37.037Z,66.48
2018-07-26T04:20:05.937Z,66.42
2018-07-26T04:22:34.530Z,66.02
2018-07-26T04:25:02.961Z,65.77
2018-07-26T04:27:31.864Z,65.67
2018-07-26T04:30:00.299Z,66.17
2018-07-26T04:32:29.157Z,65.94
2018-07-26T04:34:58.013Z,65.44
2018-07-26T04:37:26.533Z,65.51
2018-07-26T04:39:55.209Z,65.24
2018-07-26T04:42:23.781Z,65.35
2018-07-26T04:44:52.257Z,64.73
2018-07-26T04:47:20.967Z,64.53
2018-07-26T04:49:50.481Z,64.41
2018-07-26T04:52:19.378Z,64.22
2018-07-26T04:54:50.619Z,63.98
2018-07-26T04:57:20.453Z,64.24
2018-07-26T04:59:48.936Z,63.71
2018-07-26T05:02:17.385Z,63.39
2018-07-26T05:04:46.345Z,63.64
2018-07-26T05:07:15.027Z,62.93
2018-07-26T05:09:43.853Z,63.32
2018-07-26T05:12:12.613Z,62.94
2018-07-26T05:14:41.418Z,62.34
2018-07-26T05:17:10.113Z,62.64
2018-07-26T05:19:39.018Z,62.19
2018-07-26T05:22:07.777Z,61.91
2018-07-26T05:24:36.457Z,62.20
2018-07-26T05:27:05.858Z,62.14
2018-07-26T05:29:34.337Z,61.65
2018-07-26T05:32:03.141Z,61.48
2018-07-26T05:34:32.014Z,61.92
2018-07-26T05:37:00.513Z,61.34
2018-07-26T05:39:29.422Z,61.68
2018-07-26T05:41:59.294Z,61.79
2018-07-26T05:44:27.793Z,61.15
2018-07-26T05:46:56.849Z,61.61
2018-07-26T05:49:26.076Z,60.94
2018-07-26T05:51:54.529Z,60.62
2018-07-26T05:54:23.271Z,60.78
2018-07-26T05:56:52.039Z,60.92
2018-07-26T05:59:20.915Z,60.56
2018-07-26T06:01:50.310Z,60.16
2018-07-26T06:04:19.097Z,60.21
2018-07-26T06:06:47.617Z,59.71
2018-07-26T06:09:16.101Z,59.28
2018-07-26T06:11:44.765Z,58.95
2018-07-26T06:14:13.593Z,59.32
2018-07-26T06:16:42.655Z,58.93
2018-07-26T06:19:11.744Z,58.72
2018-07-26T06:21:40.229Z,58.05
2018-07-26T06:24:08.965Z,58.09
2018-07-26T06:26:37.771Z,57.84
2018-07-26T06:29:06.273Z,57.72
2018-07-26T06:31:35.297Z,57.16
2018-07-26T06:34:04.106Z,56.64
2018-07-26T06:36:32.605Z,56.96
2018-07-26T06:39:01.129Z,56.26
2018-07-26T06:41:30.317Z,56.92
2018-07-26T06:43:59.190Z,56.48
2018-07-26T06:46:27.701Z,56.05
2018-07-26T06:48:57.581Z,56.37
2018-07-26T06:51:26.289Z,55.88
2018-07-26T06:53:54.753Z,55.63
2018-07-26T06:56:24.152Z,55.69
2018-07-26T06:58:53.014Z,54.35
2018-07-26T07:01:21.878Z,54.35
2018-07-26T07:03:51.025Z,53.80
2018-07-26T07:06:19.606Z,53.45
2018-07-26T07:08:48.305Z,53.26
2018-07-26T07:11:16.880Z,53.25
2018-07-26T07:13:45.610Z,52.53
2018-07-26T07:16:14.193Z,52.64
2018-07-26T07:18:43.062Z,51.78
2018-07-26T07:21:11.569Z,52.04
2018-07-26T07:23:40.409Z,51.22
2018-07-26T07:26:09.195Z,50.39
2018-07-26T07:28:37.600Z,49.88
2018-07-26T07:31:06.071Z,49.64
2018-07-26T07:33:35.147Z,49.08
2018-07-26T07:36:03.895Z,49.21
2018-07-26T07:38:32.347Z,48.11
2018-07-26T07:41:01.234Z,46.52
2018-07-26T07:43:29.913Z,45.09
2018-07-26T07:45:58.485Z,43.49
2018-07-26T07:48:28.002Z,43.29
2018-07-26T07:50:56.617Z,42.07
2018-07-26T07:53:25.062Z,42.37
2018-07-26T07:55:53.634Z,40.85
2018-07-26T07:58:22.765Z,40.27
2018-07-26T08:00:51.617Z,39.41
2018-07-26T08:03:21.472Z,38.07
2018-07-26T08:05:49.929Z,36.27
2018-07-26T08:08:18.683Z,36.57
2018-07-26T08:10:47.153Z,36.97
2018-07-26T08:13:15.697Z,36.44
2018-07-26T08:15:44.373Z,36.94
2018-07-26T08:18:13.269Z,37.06
2018-07-26T08:20:41.757Z,35.92
2018-07-26T08:23:10.226Z,36.30
2018-07-26T08:25:38.986Z,36.22
2018-07-26T08:28:07.453Z,34.65
2018-07-26T08:30:36.165Z,34.82
2018-07-26T08:33:05.135Z,34.87
2018-07-26T08:35:33.598Z,34.41
2018-07-26T08:38:02.045Z,33.59
2018-07-26T08:40:30.942Z,33.54
2018-07-26T08:42:59.425Z,32.55
2018-07-26T08:45:27.914Z,32.79
2018-07-26T08:47:56.660Z,32.67
2018-07-26T08:50:25.213Z,31.75
2018-07-26T08:52:54.018Z,33.56
2018-07-26T08:55:23.019Z,34.04
2018-07-26T08:57:51.653Z,33.00
2018-07-26T09:00:20.437Z,31.91
2018-07-26T09:02:49.397Z,31.59
2018-07-26T09:05:18.018Z,31.97
2018-07-26T09:07:46.565Z,31.65
2018-07-26T09:10:16.432Z,30.65
2018-07-26T09:12:44.989Z,30.00
2018-07-26T09:15:13.456Z,30.12
2018-07-26T09:17:43.853Z,29.91
2018-07-26T09:20:12.729Z,28.87
2018-07-26T09:22:41.282Z,29.02
2018-07-26T09:25:09.853Z,28.77
2018-07-26T09:27:38.299Z,27.84
2018-07-26T09:30:08.505Z,28.34
2018-07-26T09:32:37.037Z,27.48
2018-07-26T09:35:05.571Z,27.05
2018-07-26T09:37:34.129Z,28.16
2018-07-26T09:40:02.709Z,27.30
2018-07-26T09:42:31.400Z,27.83
2018-07-26T09:44:59.841Z,26.41
2018-07-26T09:47:28.459Z,26.15
2018-07-26T09:49:56.927Z,25.59
2018-07-26T09:52:25.499Z,25.41
2018-07-26T09:54:54.084Z,25.75
2018-07-26T09:57:22.672Z,25.31
2018-07-26T09:59:51.572Z,25.21
2018-07-26T10:02:21.081Z,24.88
2018-07-26T10:04:49.821Z,24.73
2018-07-26T10:07:18.329Z,25.49
2018-07-26T10:09:47.733Z,25.42
2018-07-26T10:12:16.198Z,25.27
2018-07-26T10:14:44.637Z,25.03
2018-07-26T10:17:13.294Z,24.96
2018-07-26T10:19:41.845Z,24.66
2018-07-26T10:22:10.595Z,24.81
2018-07-26T10:24:39.593Z,25.21
2018-07-26T10:27:08.117Z,26.00
2018-07-26T10:29:36.606Z,26.69
2018-07-26T10:32:05.645Z,26.88
2018-07-26T10:34:34.792Z,26.55
2018-07-26T10:37:03.277Z,25.24
2018-07-26T10:39:32.004Z,24.56
2018-07-26T10:42:00.465Z,25.59
2018-07-26T10:44:28.969Z,25.68
2018-07-26T10:46:58.068Z,25.84
2018-07-26T10:49:26.560Z,25.97
2018-07-26T10:51:55.670Z,25.81
2018-07-26T10:54:24.405Z,25.88
2018-07-26T10:56:52.829Z,24.48
2018-07-26T10:59:21.344Z,25.26
2018-07-26T11:01:50.458Z,25.75
2018-07-26T11:04:19.077Z,25.33
2018-07-26T11:06:47.533Z,23.75
2018-07-26T11:09:16.633Z,25.15
2018-07-26T11:11:45.129Z,25.56
2018-07-26T11:14:13.661Z,25.21
2018-07-26T11:16:42.310Z,25.54
2018-07-26T11:19:10.746Z,25.60
2018-07-26T11:21:39.241Z,26.23
2018-07-26T11:24:08.212Z,25.67
2018-07-26T11:26:36.765Z,26.26
2018-07-26T11:29:05.241Z,26.33
2018-07-26T11:31:34.069Z,25.50
2018-07-26T11:34:03.076Z,25.78
2018-07-26T11:36:31.553Z,26.23
2018-07-26T11:39:00.428Z,25.88
2018-07-26T11:41:29.359Z,25.48
2018-07-26T11:43:57.783Z,26.15
2018-07-26T11:46:26.417Z,27.06
2018-07-26T11:48:55.381Z,27.45
2018-07-26T11:51:23.825Z,26.51
2018-07-26T11:53:52.653Z,26.66
2018-07-26T11:56:21.096Z,25.80
2018-07-26T11:58:49.695Z,25.98
2018-07-26T12:01:18.279Z,25.20
2018-07-26T12:03:46.721Z,25.54
2018-07-26T12:06:15.426Z,25.85
2018-07-26T12:08:43.886Z,25.46
2018-07-26T12:11:12.562Z,24.81
2018-07-26T12:13:40.989Z,24.49
2018-07-26T12:16:09.932Z,24.09
2018-07-26T12:18:38.368Z,24.00
2018-07-26T12:21:06.848Z,24.40
2018-07-26T12:23:35.485Z,23.72
2018-07-26T12:26:04.066Z,23.03
2018-07-26T12:28:32.487Z,22.80
2018-07-26T12:31:01.597Z,22.84
2018-07-26T12:33:30.054Z,23.02
2018-07-26T12:35:58.561Z,24.22
2018-07-26T12:38:27.034Z,24.24
2018-07-26T12:40:55.492Z,23.30
2018-07-26T12:43:23.990Z,22.75
2018-07-26T12:45:52.646Z,22.17
2018-07-26T12:48:21.237Z,21.31
2018-07-26T12:50:49.709Z,21.21
2018-07-26T12:53:18.533Z,21.05
2018-07-26T12:55:47.042Z,21.44
2018-07-26T12:58:15.473Z,23.30
2018-07-26T13:00:43.941Z,22.73
2018-07-26T13:03:12.386Z,22.64
2018-07-26T13:05:41.294Z,22.36
2018-07-26T13:08:10.272Z,22.59
2018-07-26T13:10:38.695Z,22.93
2018-07-26T13:13:07.167Z,23.18
2018-07-26T13:15:36.106Z,24.02
2018-07-26T13:18:04.598Z,24.25
2018-07-26T13:20:33.099Z,23.15
2018-07-26T13:23:01.730Z,23.73
2018-07-26T13:25:30.355Z,22.83
2018-07-26T13:27:58.813Z,23.28
2018-07-26T13:30:27.337Z,23.32
2018-07-26T13:32:55.778Z,23.01
2018-07-26T13:35:24.334Z,22.86
2018-07-26T13:37:53.097Z,23.02
2018-07-26T13:40:21.953Z,23.86
2018-07-26T13:42:50.353Z,23.57
2018-07-26T13:45:19.235Z,22.32
2018-07-26T13:47:47.663Z,22.72
2018-07-26T13:50:16.064Z,21.75
2018-07-26T13:52:44.634Z,21.02
2018-07-26T13:55:13.049Z,22.28
2018-07-26T13:57:41.492Z,21.79
2018-07-26T14:00:11.558Z,20.93
2018-07-26T14:02:40.014Z,20.81
2018-07-26T14:05:08.477Z,21.43
2018-07-26T14:07:37.038Z,21.37
2018-07-26T14:10:07.403Z,22.23
2018-07-26T14:12:36.745Z,21.79
2018-07-26T14:15:06.497Z,21.12
2018-07-26T14:17:35.058Z,20.46
2018-07-26T14:20:03.572Z,20.37
2018-07-26T14:22:32.509Z,20.36
2018-07-26T14:25:01.218Z,20.54
2018-07-26T14:27:30.310Z,20.35
2018-07-26T14:29:59.181Z,19.56
2018-07-26T14:32:27.911Z,19.37
2018-07-26T14:34:56.637Z,19.80
2018-07-26T14:37:25.362Z,20.10
2018-07-26T14:39:53.891Z,20.85
2018-07-26T14:42:22.485Z,21.15
2018-07-26T14:44:50.986Z,21.51
2018-07-26T14:47:19.709Z,21.23
2018-07-26T14:49:48.185Z,20.57
2018-07-26T14:52:16.662Z,20.24
2018-07-26T14:54:45.102Z,19.63
2018-07-26T14:57:13.573Z,18.93
2018-07-26T14:59:42.012Z,19.32
2018-07-26T15:02:10.595Z,19.64
2018-07-26T15:04:39.173Z,20.15
2018-07-26T15:07:07.650Z,20.19
2018-07-26T15:09:36.133Z,20.34
2018-07-26T15:12:04.763Z,20.72
2018-07-26T15:14:33.363Z,20.77
2018-07-26T15:17:01.814Z,20.18
2018-07-26T15:19:30.321Z,19.71
2018-07-26T15:21:59.283Z,19.82
2018-07-26T15:24:28.790Z,20.04
2018-07-26T15:26:57.364Z,20.33
2018-07-26T15:29:26.469Z,20.84
2018-07-26T15:31:54.889Z,21.48
2018-07-26T15:34:23.361Z,22.30
2018-07-26T15:36:52.043Z,21.60
2018-07-26T15:39:21.034Z,21.18
2018-07-26T15:41:49.617Z,21.20
2018-07-26T15:44:18.165Z,21.07
2018-07-26T15:46:53.265Z,21.67
2018-07-26T15:49:21.924Z,22.44
2018-07-26T15:51:50.381Z,20.77
2018-07-26T15:54:18.847Z,21.26
2018-07-26T15:56:47.505Z,21.69
2018-07-26T15:59:15.954Z,21.48
2018-07-26T16:01:44.511Z,21.50
2018-07-26T16:04:12.999Z,21.52
2018-07-26T16:06:41.489Z,21.14
2018-07-26T16:09:11.099Z,20.87
2018-07-26T16:11:39.753Z,20.43
2018-07-26T16:14:09.427Z,20.07
2018-07-26T16:16:37.952Z,20.01
2018-07-26T16:19:06.614Z,19.99
2018-07-26T16:21:35.533Z,20.26
2018-07-26T16:24:04.456Z,20.56
2018-07-26T16:26:33.121Z,20.26
2018-07-26T16:29:01.738Z,20.50
2018-07-26T16:31:30.710Z,20.18
2018-07-26T16:33:59.215Z,20.57
2018-07-26T16:36:27.645Z,20.28
2018-07-26T16:38:56.541Z,20.25
2018-07-26T16:41:25.008Z,20.05
2018-07-26T16:43:53.457Z,20.77
2018-07-26T16:46:22.001Z,20.72
2018-07-26T16:48:50.797Z,20.83
2018-07-26T16:51:19.310Z,20.95
2018-07-26T16:53:47.828Z,21.17
2018-07-26T16:56:16.442Z,20.83
2018-07-26T16:58:44.888Z,21.46
2018-07-26T17:01:13.694Z,21.54
2018-07-26T17:03:42.589Z,22.03
2018-07-26T17:06:11.037Z,21.84
2018-07-26T17:08:39.527Z,22.15
2018-07-26T17:11:08.570Z,22.01
2018-07-26T17:13:37.129Z,22.76
2018-07-26T17:16:05.931Z,23.54
2018-07-26T17:18:34.634Z,23.84
2018-07-26T17:21:03.158Z,24.93
2018-07-26T17:23:31.687Z,25.14
2018-07-26T17:26:00.190Z,25.12
2018-07-26T17:28:28.661Z,25.44
2018-07-26T17:30:57.205Z,26.25
2018-07-26T17:33:25.997Z,26.88
2018-07-26T17:35:54.698Z,27.00
2018-07-26T17:38:26.018Z,27.44
2018-07-26T17:40:54.774Z,27.43
2018-07-26T17:43:25.114Z,28.06
2018-07-26T17:45:53.586Z,28.52
2018-07-26T17:48:22.341Z,28.30
2018-07-26T17:50:50.821Z,28.58
2018-07-26T17:53:19.906Z,28.71
2018-07-26T17:55:48.382Z,29.20
2018-07-26T17:58:17.007Z,29.55
2018-07-26T18:00:45.681Z,29.57
2018-07-26T18:03:14.140Z,29.61
2018-07-26T18:05:42.613Z,30.18
2018-07-26T18:08:11.177Z,30.43
2018-07-26T18:10:40.525Z,30.97
2018-07-26T18:15:36.524Z,31.04
2018-07-26T18:18:05.166Z,31.19
2018-07-26T18:20:33.799Z,32.06
2018-07-26T18:23:02.257Z,31.77
2018-07-26T18:25:31.038Z,31.86
2018-07-26T18:27:59.553Z,31.96
2018-07-26T18:30:29.213Z,32.39
2018-07-26T18:32:57.661Z,32.59
2018-07-26T18:35:26.289Z,32.46
2018-07-26T18:37:54.797Z,33.03
2018-07-26T18:40:23.253Z,32.80
2018-07-26T18:42:51.905Z,32.64
2018-07-26T18:45:20.788Z,32.79
2018-07-26T18:47:49.236Z,33.47
2018-07-26T18:50:17.993Z,33.83
2018-07-26T18:52:46.577Z,33.69
2018-07-26T18:55:15.026Z,33.85
2018-07-26T18:57:43.690Z,34.13
2018-07-26T19:00:13.635Z,34.43
2018-07-26T19:02:42.421Z,34.30
2018-07-26T19:05:11.007Z,34.82
2018-07-26T19:07:39.475Z,34.48
2018-07-26T19:10:09.909Z,34.86
2018-07-26T19:12:39.185Z,35.30
2018-07-26T19:15:12.058Z,35.03
2018-07-26T19:17:41.789Z,36.21
2018-07-26T19:20:11.717Z,36.42
2018-07-26T19:22:40.646Z,36.73
2018-07-26T19:25:10.014Z,36.41
2018-07-26T19:27:38.805Z,36.77
2018-07-26T19:30:09.658Z,37.07
2018-07-26T19:32:39.825Z,36.88
2018-07-26T19:35:08.310Z,37.03
2018-07-26T19:37:36.829Z,37.85
2018-07-26T19:40:07.238Z,37.57
2018-07-26T19:42:36.361Z,37.98
2018-07-26T19:45:06.057Z,37.75
2018-07-26T19:47:34.513Z,38.67
2018-07-26T19:50:03.715Z,38.66
2018-07-26T19:52:32.194Z,38.88
2018-07-26T19:55:00.642Z,39.08
2018-07-26T19:57:29.341Z,39.27
2018-07-26T19:59:58.225Z,39.42
2018-07-26T20:02:27.445Z,39.92
2018-07-26T20:04:56.215Z,39.57
2018-07-26T20:07:25.074Z,40.11
2018-07-26T20:09:53.716Z,40.41
2018-07-26T20:12:22.243Z,40.65
2018-07-26T20:14:50.957Z,40.35
2018-07-26T20:17:19.580Z,40.54
2018-07-26T20:19:48.090Z,41.06
2018-07-26T20:22:16.753Z,41.32
2018-07-26T20:24:45.500Z,41.08
2018-07-26T20:27:13.954Z,41.90
2018-07-26T20:29:42.533Z,42.00
2018-07-26T20:32:11.197Z,42.29
2018-07-26T20:34:39.813Z,42.53
2018-07-26T20:37:08.958Z,42.68
2018-07-26T20:39:37.482Z,42.50
2018-07-26T20:42:06.648Z,42.83
2018-07-26T20:44:35.104Z,43.27
2018-07-26T20:47:03.583Z,43.65
2018-07-26T20:49:32.023Z,43.50
2018-07-26T20:52:00.567Z,43.97
2018-07-26T20:54:29.181Z,43.85
2018-07-26T20:56:57.689Z,44.12
2018-07-26T20:59:27.009Z,44.79
2018-07-26T21:01:55.494Z,44.81
2018-07-26T21:04:24.158Z,45.27
2018-07-26T21:06:53.131Z,45.21
2018-07-26T21:09:21.609Z,45.53
2018-07-26T21:11:50.206Z,45.73
2018-07-26T21:14:18.659Z,45.67
2018-07-26T21:16:47.614Z,45.69
2018-07-26T21:19:16.694Z,46.10
2018-07-26T21:21:45.482Z,45.84
2018-07-26T21:24:14.431Z,46.04
2018-07-26T21:26:42.857Z,46.37
2018-07-26T21:29:11.350Z,46.92
2018-07-26T21:31:39.859Z,47.14
2018-07-26T21:34:09.517Z,46.63
2018-07-26T21:36:38.001Z,46.83
2018-07-26T21:39:09.049Z,47.38
2018-07-26T21:41:37.559Z,47.52
2018-07-26T21:44:06.765Z,47.17
2018-07-26T21:46:35.517Z,47.67
2018-07-26T21:49:04.182Z,48.27
2018-07-26T21:51:32.898Z,48.08
2018-07-26T21:54:01.812Z,48.31
2018-07-26T21:56:30.349Z,48.58
2018-07-26T21:58:59.081Z,48.91
2018-07-26T22:01:28.038Z,49.86
2018-07-26T22:03:56.658Z,50.19
2018-07-26T22:06:25.187Z,50.49
2018-07-26T22:08:53.713Z,50.04
2018-07-26T22:11:22.273Z,50.50
2018-07-26T22:13:50.707Z,50.28
2018-07-26T22:16:19.367Z,50.33
2018-07-26T22:18:47.939Z,50.64
2018-07-26T22:21:16.907Z,50.83
2018-07-26T22:23:45.469Z,51.12
2018-07-26T22:26:13.947Z,51.38
2018-07-26T22:28:42.433Z,51.91
2018-07-26T22:31:11.051Z,52.11
2018-07-26T22:33:39.546Z,52.45
2018-07-26T22:36:08.758Z,52.76
2018-07-26T22:38:37.993Z,52.53
2018-07-26T22:41:06.523Z,52.64
2018-07-26T22:43:35.430Z,52.57
2018-07-26T22:46:03.924Z,52.90
2018-07-26T22:48:32.397Z,52.58
2018-07-26T22:51:01.237Z,52.68
2018-07-26T22:53:30.065Z,52.97
2018-07-26T22:55:59.929Z,53.64
2018-07-26T22:58:28.541Z,53.77
2018-07-26T23:00:58.321Z,53.78
2018-07-26T23:03:27.064Z,54.16
2018-07-26T23:05:55.606Z,54.97
2018-07-26T23:08:24.266Z,55.17
2018-07-26T23:10:52.774Z,55.06
2018-07-26T23:13:21.630Z,54.63
2018-07-26T23:15:50.308Z,54.70
2018-07-26T23:18:18.830Z,54.74
2018-07-26T23:20:47.359Z,55.39
2018-07-26T23:23:16.177Z,54.88
2018-07-26T23:25:44.756Z,55.67
2018-07-26T23:28:13.217Z,55.68
2018-07-26T23:30:41.889Z,55.16
2018-07-26T23:33:11.342Z,55.71
2018-07-26T23:35:39.974Z,55.91
2018-07-26T23:38:08.445Z,55.70
2018-07-26T23:40:36.920Z,56.09
2018-07-26T23:43:05.793Z,56.24
2018-07-26T23:45:34.233Z,55.74
2018-07-26T23:48:03.581Z,56.10
2018-07-26T23:50:32.379Z,56.35
2018-07-26T23:53:00.821Z,56.33
2018-07-26T23:55:29.310Z,56.32
2018-07-26T23:57:58.142Z,56.07
